Nearby METAR Reports

 

KCMA - Camarillo, California, USA
Distance from station: WSW 4mi, 7km
Updated: Thu, 15-Nov-2018 4:55am PST
Clear
Clear
 Wind from calm
Wind: Calm
Temperature: 52°F , 11°C
Dew Point: 19°F , -7°C
Humidity: 28%
Barometer: 30.08 inHg , 1018.6 hPa
Clouds: Clear
Visibility: 10 miles , 16 km
2018/11/15 12:55 KCMA 151255Z AUTO 00000KT 10SM CLR 11/M07 A3008 RMK AO2 SLP195 T01061067
KNTD - Point Mugu Nas, California, USA
Distance from station: SSW 9mi, 15km
Updated: Thu, 15-Nov-2018 4:57am PST
Clear
Clear
 Wind from N
Wind: N 8 mph , 13 km/h
Temperature: 52°F , 11°C
Dew Point: 25°F , -4°C
Humidity: 35%
Barometer: 30.09 inHg , 1019 hPa
Clouds: Clear
Visibility: 10 miles , 16 km
2018/11/15 12:57 KNTD 151257Z AUTO 01007KT 10SM CLR 11/M04 A3009 RMK AO2 SLP190 T01111039 $
 
KOXR - Oxnard, California, USA
Distance from station: WSW 10mi, 16km
Updated: Thu, 15-Nov-2018 4:51am PST
Clear
Clear
 Wind from NE
Wind: NE 7 mph , 11 km/h
Temperature: 55°F , 13°C
Dew Point: 19°F , -7°C
Humidity: 24%
Barometer: 30.09 inHg , 1019 hPa
Clouds: Clear
Visibility: 10 miles , 16 km
2018/11/15 12:51 KOXR 151251Z AUTO 04006KT 10SM CLR 13/M07 A3009 RMK AO2 SLP187 T01331072
KVNY - Van Nuys, California, USA
Distance from station: E 31mi, 50km
Updated: Thu, 15-Nov-2018 4:51am PST
Clear
Clear
 Wind from calm
Wind: Calm
Temperature: 52°F , 11°C
Dew Point: 21°F , -6°C
Humidity: 30%
Barometer: 30.10 inHg , 1019.3 hPa
Clouds: Clear
Visibility: 10 miles , 16 km
2018/11/15 12:51 KVNY 151251Z 00000KT 10SM CLR 11/M06 A3010 RMK AO2 SLP185 T01111056
 
KWHP - La / Whiteman, California, USA
Distance from station: E 35mi, 56km
Updated: Wed, 14-Nov-2018 6:55pm PST
NOT Current
Clear
Clear
 Wind from calm
Wind: Calm
Temperature: 64°F , 18°C
Dew Point: 16°F , -9°C
Humidity: 15%
Barometer: 30.19 inHg , 1022.4 hPa
Clouds: Clear
Visibility: 10 miles , 16 km
2018/11/15 02:55 KWHP 150255Z 00000KT 10SM SKC 18/M09 A3019
KSMO - Santa Monica, California, USA
Distance from station: ESE 36mi, 58km
Updated: Thu, 15-Nov-2018 4:51am PST
Clear
Clear
 Wind from ENE
Wind: ENE 6 mph , 9 km/h
Temperature: 55°F , 13°C
Dew Point: 25°F , -4°C
Humidity: 31%
Barometer: 30.09 inHg , 1019 hPa
Clouds: Clear
Visibility: 10 miles , 16 km
2018/11/15 12:51 KSMO 151251Z AUTO 07005KT 10SM CLR 13/M04 A3009 RMK AO2 SLP187 T01331044
 
KBUR - Burbank, California, USA
Distance from station: E 38mi, 61km
Updated: Thu, 15-Nov-2018 4:53am PST
Clear
Clear
 Wind from N
Wind: N 3 mph , 6 km/h
Temperature: 48°F , 9°C
Dew Point: 21°F , -6°C
Humidity: 34%
Barometer: 30.09 inHg , 1019 hPa
Clouds: Clear
Visibility: 10 miles , 16 km
2018/11/15 12:53 KBUR 151253Z 35003KT 10SM CLR 09/M06 A3009 RMK AO2 SLP182 T00891056 $
KSDB - Sandberg, California, USA
Distance from station: NNE 40mi, 64km
Updated: Thu, 15-Nov-2018 4:53am PST
Clear
Clear
 Wind from NE
Wind: NE 9 mph , 15 km/h
Temperature: 50°F , 10°C
Wind Chill: 46°F , 8°C
Dew Point: 3°F , -16°C
Humidity: 14%
Barometer: 30.23 inHg , 1023.7 hPa
Clouds: Clear
Visibility: 10 miles , 16 km
2018/11/15 12:53 KSDB 151253Z AUTO 05008KT 10SM CLR 10/M16 A3023 RMK AO2 SLP208 T01001161
 
KLAX - Los Angeles, California, USA
Distance from station: ESE 42mi, 68km
Updated: Thu, 15-Nov-2018 4:53am PST
Few Clouds
Few Clouds
 Wind from calm
Wind: Calm
Temperature: 55°F , 13°C
Dew Point: 25°F , -4°C
Humidity: 31%
Barometer: 30.09 inHg , 1019 hPa
Clouds: Few Clouds
Visibility: 10 miles , 16 km
Cloud details: Few Clouds 20000 ft
Few Clouds 28000 ft
2018/11/15 12:53 KLAX 151253Z 00000KT 10SM FEW200 FEW280 13/M04 A3009 RMK AO2 SLP187 T01281039
KCQT - Los Angeles, California, USA
Distance from station: ESE 45mi, 73km
Updated: Thu, 15-Nov-2018 4:47am PST
Clear
Clear
 Wind from calm
Wind: Calm
Temperature: 52°F , 11°C
Dew Point: 28°F , -2°C
Humidity: 41%
Barometer: 30.08 inHg , 1018.6 hPa
Clouds: Clear
Visibility: 10 miles , 16 km
2018/11/15 12:47 KCQT 151247Z AUTO 00000KT 10SM CLR 11/M02 A3008 RMK AO2 SLP185 T01111022
 
KHHR - Hawthorne, California, USA
Distance from station: ESE 45mi, 73km
Updated: Thu, 15-Nov-2018 4:53am PST
Clear
Clear
 Wind from calm
Wind: Calm
Temperature: 54°F , 12°C
Dew Point: 28°F , -2°C
Humidity: 38%
Barometer: 30.09 inHg , 1019 hPa
Clouds: Clear
Visibility: 10 miles , 16 km
2018/11/15 12:53 KHHR 151253Z AUTO 00000KT 10SM CLR 12/M02 A3009 RMK AO2 SLP188 T01171017
KSBA - Santa Barbara, California, USA
Distance from station: WNW 49mi, 79km
Updated: Thu, 15-Nov-2018 4:53am PST
Clear
Clear
 Wind from calm
Wind: Calm
Temperature: 45°F , 7°C
Dew Point: 30°F , -1°C
Humidity: 57%
Barometer: 30.09 inHg , 1019 hPa
Clouds: Clear
Visibility: 10 miles , 16 km
2018/11/15 12:53 KSBA 151253Z AUTO 00000KT 10SM CLR 07/M01 A3009 RMK AO2 SLP187 T00671006